Terminal Aerodrome Forecast
Issued by NWS Tuscon, AZ

Home | Current Version | Previous Version | Text Only | Print | Product List | Glossary On
Versions: 1 2 3 4 5 6 7 8 9 10 11 12
272
FTUS45 KTWC 240520
TAFDUG
TAF
KDUG 240520Z 2406/2506 05007KT P6SM VCSH SCT060 BKN080 OVC100
      TEMPO 2406/2407 5SM -RA BKN060
     FM240800 12005KT P6SM SCT090 BKN120
     FM242000 28006KT P6SM SCT080
     FM250100 05007KT P6SM SCT080 BKN110=

USA.gov is the U.S. government's official web portal to all federal, state and local government web resources and services.